Terminal Aerodrome Forecast
Issued by NWS

Home | Current Version | Previous Version | Text Only | Print | Product List | Glossary On
Versions: 1 2 3 4 5 6 7 8 9 10 11 12 13 14 15 16 17 18 19 20 21 22 23 24 25 26 27 28 29 30 31 32 33 34 35 36 37 38 39 40 41 42 43 44 45 46
000
FTUS46 KMTR 191505 AAA
TAFSFO
TAF AMD
KSFO 191505Z 1915/2018 VRB04KT P6SM OVC010
     FM191730 02006KT P6SM SCT010
     FM191800 36008KT P6SM FEW010
     FM192100 31014KT P6SM SKC
     FM200400 29008KT P6SM BKN012
     FM200800 24007KT P6SM OVC008=

USA.gov is the U.S. government's official web portal to all federal, state and local government web resources and services.